Time;durP1;ratioP1;P1;durP2;ratioP2;P2;SDS_P1;SDS_P2;PMS_P1;PMS_P2;Temp;Humidity;BMP_temperature;BMP_pressure;BME280_temperature;BME280_humidity;BME280_pressure;Samples;Min_cycle;Max_cycle;Signal;HPM_P1;HPM_P2
2023/02/01 00:01:22;;;;;;;;;21.00;16.50;;;;;;;;119429;1195;25069;-62
2023/02/01 00:03:50;;;;;;;;;18.00;17.00;;;;;;;;119396;1195;25259;-62
2023/02/01 00:06:19;;;;;;;;;22.00;16.33;;;;;;;;119410;1194;25338;-62
2023/02/01 00:08:47;;;;;;;;;20.00;17.00;;;;;;;;119428;1195;25575;-62
2023/02/01 00:11:15;;;;;;;;;16.00;13.00;;;;;;;;119361;1187;24811;-63
2023/02/01 00:13:43;;;;;;;;;15.50;15.00;;;;;;;;119376;1195;25171;-62
2023/02/01 00:16:16;;;;;;;;;21.50;16.00;;;;;;;;119375;1195;25258;-62
2023/02/01 00:18:45;;;;;;;;;10.50;9.00;;;;;;;;119402;1187;25266;-62
2023/02/01 00:21:16;;;;;;;;;22.00;15.67;;;;;;;;119343;1195;25142;-63
2023/02/01 00:23:44;;;;;;;;;21.50;16.50;;;;;;;;119319;1195;26472;-64
2023/02/01 00:26:39;;;;;;;;;15.00;14.00;;;;;;;;119383;1186;25681;-62
2023/02/01 00:29:14;;;;;;;;;18.67;16.00;;;;;;;;119382;1195;24699;-63
2023/02/01 00:31:42;;;;;;;;;16.00;13.50;;;;;;;;119426;1185;25060;-63
2023/02/01 00:34:15;;;;;;;;;20.00;15.50;;;;;;;;119397;1195;24773;-63
2023/02/01 00:36:44;;;;;;;;;9.00;9.00;;;;;;;;119361;1195;25184;-63
2023/02/01 00:39:13;;;;;;;;;18.00;14.00;;;;;;;;119403;1195;25647;-63
2023/02/01 00:41:41;;;;;;;;;13.00;12.00;;;;;;;;119339;1195;25476;-63
2023/02/01 00:44:10;;;;;;;;;15.00;13.50;;;;;;;;119398;1194;25581;-63
2023/02/01 00:46:38;;;;;;;;;16.50;15.00;;;;;;;;119417;1194;24725;-63
2023/02/01 00:49:08;;;;;;;;;17.00;14.25;;;;;;;;119405;1194;24741;-64
2023/02/01 00:51:37;;;;;;;;;15.00;14.00;;;;;;;;119354;1195;25297;-63
2023/02/01 00:54:05;;;;;;;;;16.00;11.50;;;;;;;;119383;1195;25186;-63
2023/02/01 00:56:33;;;;;;;;;13.25;10.25;;;;;;;;119402;1195;25316;-63
2023/02/01 00:59:01;;;;;;;;;15.25;12.25;;;;;;;;119343;1187;25406;-63
2023/02/01 01:01:30;;;;;;;;;13.75;11.25;;;;;;;;119341;1195;25632;-63
2023/02/01 01:03:59;;;;;;;;;12.67;11.67;;;;;;;;119401;1195;25689;-63
2023/02/01 01:06:32;;;;;;;;;12.67;10.33;;;;;;;;119337;1187;25589;-63
2023/02/01 01:09:03;;;;;;;;;15.00;12.50;;;;;;;;119322;1194;25658;-63
2023/02/01 01:11:34;;;;;;;;;14.50;11.00;;;;;;;;119397;1195;25357;-63
2023/02/01 01:14:04;;;;;;;;;18.50;11.00;;;;;;;;119374;1194;25435;-63
2023/02/01 01:16:33;;;;;;;;;16.00;10.00;;;;;;;;119332;1195;25224;-63
2023/02/01 01:19:01;;;;;;;;;13.00;10.67;;;;;;;;119336;1195;24754;-63
2023/02/01 01:21:30;;;;;;;;;13.50;10.50;;;;;;;;119319;1195;25227;-63
2023/02/01 01:23:58;;;;;;;;;15.25;12.75;;;;;;;;119345;1187;25241;-63
2023/02/01 01:26:28;;;;;;;;;15.25;14.00;;;;;;;;119380;1195;25683;-63
2023/02/01 01:28:58;;;;;;;;;14.50;11.00;;;;;;;;119335;1195;25098;-63
2023/02/01 01:31:27;;;;;;;;;13.00;13.00;;;;;;;;119414;1195;25126;-63
2023/02/01 01:33:57;;;;;;;;;9.00;9.00;;;;;;;;119390;1195;24974;-63
2023/02/01 01:36:26;;;;;;;;;11.33;9.00;;;;;;;;119339;1187;25310;-63
2023/02/01 01:38:54;;;;;;;;;13.50;11.00;;;;;;;;119325;1195;25576;-63
2023/02/01 01:41:25;;;;;;;;;18.00;14.00;;;;;;;;119411;1190;24993;-63
2023/02/01 01:44:04;;;;;;;;;16.00;11.00;;;;;;;;119379;1195;25233;-62
2023/02/01 01:46:37;;;;;;;;;11.50;11.50;;;;;;;;119403;1194;25243;-63
2023/02/01 01:49:15;;;;;;;;;12.00;9.33;;;;;;;;119330;1192;24837;-63
2023/02/01 01:51:48;;;;;;;;;13.50;10.00;;;;;;;;119386;1194;25423;-63
2023/02/01 01:54:21;;;;;;;;;13.00;12.00;;;;;;;;119394;1195;25560;-63
2023/02/01 01:56:56;;;;;;;;;14.00;11.00;;;;;;;;119355;1195;25613;-63
2023/02/01 01:59:25;;;;;;;;;11.33;10.33;;;;;;;;119384;1195;25475;-63
2023/02/01 02:01:54;;;;;;;;;14.00;12.00;;;;;;;;119372;1187;25985;-63
2023/02/01 02:04:23;;;;;;;;;12.50;11.50;;;;;;;;119375;1195;25048;-63
2023/02/01 02:06:57;;;;;;;;;12.00;10.50;;;;;;;;119362;1195;24939;-63
2023/02/01 02:09:26;;;;;;;;;13.00;11.00;;;;;;;;119373;1194;25490;-63
2023/02/01 02:11:54;;;;;;;;;11.00;10.00;;;;;;;;119412;1194;25086;-63
2023/02/01 02:14:23;;;;;;;;;10.33;9.67;;;;;;;;119411;1194;25630;-63
2023/02/01 02:17:22;;;;;;;;;14.00;12.00;;;;;;;;119427;1187;25244;-63
2023/02/01 02:20:14;;;;;;;;;10.50;10.50;;;;;;;;119422;1194;25234;-63
2023/02/01 02:23:23;;;;;;;;;14.50;13.00;;;;;;;;119398;1195;25671;-63
2023/02/01 02:26:56;;;;;;;;;11.50;9.50;;;;;;;;119268;1195;24980;-63
2023/02/01 02:29:36;;;;;;;;;10.00;10.00;;;;;;;;118831;1198;25376;-63
2023/02/01 02:32:33;;;;;;;;;13.00;10.00;;;;;;;;119029;1197;25692;-63
2023/02/01 02:35:01;;;;;;;;;12.00;10.00;;;;;;;;119271;1194;24912;-63
2023/02/01 02:37:39;;;;;;;;;7.50;7.50;;;;;;;;119411;1185;25523;-63
2023/02/01 02:40:08;;;;;;;;;12.00;11.00;;;;;;;;119399;1194;25330;-63
2023/02/01 02:49:03;;;;;;;;;12.00;9.00;;;;;;;;119440;1194;25495;-63
2023/02/01 02:54:50;;;;;;;;;9.00;8.33;;;;;;;;119410;1185;24941;-63
2023/02/01 03:05:45;;;;;;;;;10.50;9.00;;;;;;;;119408;1190;24934;-62
2023/02/01 03:08:16;;;;;;;;;12.00;9.00;;;;;;;;119392;1187;25558;-63
2023/02/01 03:10:59;;;;;;;;;9.00;9.00;;;;;;;;119424;1194;25351;-63
2023/02/01 03:13:53;;;;;;;;;11.00;10.00;;;;;;;;119436;1194;25484;-63
2023/02/01 03:16:36;;;;;;;;;11.50;10.00;;;;;;;;119396;1195;25411;-63
2023/02/01 03:19:15;;;;;;;;;12.00;10.00;;;;;;;;119397;1187;25363;-62
2023/02/01 03:22:04;;;;;;;;;12.00;9.00;;;;;;;;119395;1194;25196;-63
2023/02/01 03:24:45;;;;;;;;;11.00;8.00;;;;;;;;119410;1195;25401;-63
2023/02/01 03:27:38;;;;;;;;;9.00;6.00;;;;;;;;119414;1186;24907;-63
2023/02/01 03:30:22;;;;;;;;;10.50;7.50;;;;;;;;119414;1185;25661;-63
2023/02/01 03:33:00;;;;;;;;;11.00;8.00;;;;;;;;119408;1195;25735;-63
2023/02/01 03:35:53;;;;;;;;;7.00;7.00;;;;;;;;119351;1195;25003;-63
2023/02/01 03:38:32;;;;;;;;;7.00;7.00;;;;;;;;119382;1195;25167;-63
2023/02/01 03:41:00;;;;;;;;;7.50;7.50;;;;;;;;119337;1195;24879;-63
2023/02/01 03:43:34;;;;;;;;;12.00;11.00;;;;;;;;119400;1195;25468;-63
2023/02/01 03:46:06;;;;;;;;;13.00;9.00;;;;;;;;119338;1195;25430;-62
2023/02/01 03:48:35;;;;;;;;;11.00;9.00;;;;;;;;119340;1194;25635;-63
2023/02/01 03:51:05;;;;;;;;;7.50;7.50;;;;;;;;119362;1187;25554;-63
2023/02/01 03:53:36;;;;;;;;;8.00;8.00;;;;;;;;119429;1195;26077;-63
2023/02/01 03:56:05;;;;;;;;;9.50;8.50;;;;;;;;119429;1194;24790;-64
2023/02/01 03:58:33;;;;;;;;;10.00;8.33;;;;;;;;119408;1195;26957;-63
2023/02/01 04:01:01;;;;;;;;;8.00;8.00;;;;;;;;119415;1195;25617;-63
2023/02/01 04:03:30;;;;;;;;;8.50;7.50;;;;;;;;119387;1195;25133;-64
2023/02/01 04:05:58;;;;;;;;;9.00;8.00;;;;;;;;119398;1195;24876;-63
2023/02/01 04:08:26;;;;;;;;;9.00;9.00;;;;;;;;119393;1195;24922;-63
2023/02/01 04:10:54;;;;;;;;;11.00;9.00;;;;;;;;119377;1195;24917;-63
2023/02/01 04:13:23;;;;;;;;;7.67;7.67;;;;;;;;119406;1186;25452;-63
2023/02/01 04:15:51;;;;;;;;;9.00;9.00;;;;;;;;119394;1195;24988;-63
2023/02/01 04:18:19;;;;;;;;;10.50;10.00;;;;;;;;119418;1195;24968;-63
2023/02/01 04:20:48;;;;;;;;;8.00;7.00;;;;;;;;119428;1195;24901;-63
2023/02/01 04:23:16;;;;;;;;;8.00;7.00;;;;;;;;119388;1187;25261;-63
2023/02/01 04:25:45;;;;;;;;;9.00;9.00;;;;;;;;119408;1195;24924;-63
2023/02/01 04:28:13;;;;;;;;;8.25;8.25;;;;;;;;119397;1195;25663;-63
2023/02/01 04:30:41;;;;;;;;;11.50;8.00;;;;;;;;119392;1190;25023;-63
2023/02/01 04:33:13;;;;;;;;;8.00;7.33;;;;;;;;119388;1187;25133;-63
2023/02/01 04:35:42;;;;;;;;;10.00;9.00;;;;;;;;119387;1187;25121;-63
2023/02/01 04:38:10;;;;;;;;;9.00;8.00;;;;;;;;119351;1195;25272;-63
2023/02/01 04:40:38;;;;;;;;;10.67;8.67;;;;;;;;119362;1195;25236;-63
2023/02/01 04:43:07;;;;;;;;;8.00;5.00;;;;;;;;119351;1195;25458;-63
2023/02/01 04:45:36;;;;;;;;;8.00;7.00;;;;;;;;119347;1187;26391;-63
2023/02/01 04:48:04;;;;;;;;;8.67;8.00;;;;;;;;119366;1195;24708;-62
2023/02/01 04:50:32;;;;;;;;;7.00;6.50;;;;;;;;119377;1195;25547;-62
2023/02/01 04:53:01;;;;;;;;;12.00;8.00;;;;;;;;119350;1195;25259;-62
2023/02/01 04:55:30;;;;;;;;;7.00;6.00;;;;;;;;119394;1187;25390;-63
2023/02/01 04:57:58;;;;;;;;;7.00;4.00;;;;;;;;119406;1194;25435;-63
2023/02/01 05:00:26;;;;;;;;;8.00;7.33;;;;;;;;119418;1185;25422;-63
2023/02/01 05:02:55;;;;;;;;;11.00;7.00;;;;;;;;119400;1185;25225;-63
2023/02/01 05:05:23;;;;;;;;;9.33;9.33;;;;;;;;119410;1195;25300;-63
2023/02/01 05:07:52;;;;;;;;;10.00;8.50;;;;;;;;119415;1185;25292;-63
2023/02/01 05:10:20;;;;;;;;;12.00;6.00;;;;;;;;119409;1194;24924;-63
2023/02/01 05:15:36;;;;;;;;;10.00;7.00;;;;;;;;119398;1186;25487;-63
2023/02/01 05:18:04;;;;;;;;;8.00;8.00;;;;;;;;119374;1195;25039;-63
2023/02/01 05:20:32;;;;;;;;;9.00;8.50;;;;;;;;119348;1195;25149;-63
2023/02/01 05:23:01;;;;;;;;;7.00;6.00;;;;;;;;119387;1187;25639;-63
2023/02/01 05:25:29;;;;;;;;;10.50;8.50;;;;;;;;119396;1187;25555;-63
2023/02/01 05:27:57;;;;;;;;;10.00;10.00;;;;;;;;119392;1195;25212;-61
2023/02/01 05:30:25;;;;;;;;;8.00;8.00;;;;;;;;119344;1192;24982;-63
2023/02/01 05:32:54;;;;;;;;;9.50;6.25;;;;;;;;119369;1195;25094;-62
2023/02/01 05:35:22;;;;;;;;;10.00;8.00;;;;;;;;119388;1195;24853;-62
2023/02/01 05:37:50;;;;;;;;;7.00;7.00;;;;;;;;119348;1195;25435;-63
2023/02/01 05:40:19;;;;;;;;;6.67;6.67;;;;;;;;119395;1187;24772;-63
2023/02/01 05:42:47;;;;;;;;;10.33;7.33;;;;;;;;119407;1195;24780;-63
2023/02/01 05:45:16;;;;;;;;;7.50;5.50;;;;;;;;119397;1187;25804;-63
2023/02/01 05:47:44;;;;;;;;;11.00;9.00;;;;;;;;119375;1195;25474;-62
2023/02/01 05:50:12;;;;;;;;;10.00;10.00;;;;;;;;119392;1195;24873;-63
2023/02/01 05:52:40;;;;;;;;;11.00;11.00;;;;;;;;119387;1195;25220;-63
2023/02/01 05:55:09;;;;;;;;;11.00;10.00;;;;;;;;119413;1195;25003;-63
2023/02/01 05:57:37;;;;;;;;;9.00;6.00;;;;;;;;119329;1195;25272;-62
2023/02/01 06:00:06;;;;;;;;;11.33;10.00;;;;;;;;119402;1195;25174;-63
2023/02/01 06:02:34;;;;;;;;;8.00;8.00;;;;;;;;119358;1194;25311;-63
2023/02/01 06:05:03;;;;;;;;;11.00;9.50;;;;;;;;119394;1194;25318;-63
2023/02/01 06:07:32;;;;;;;;;14.67;9.00;;;;;;;;119395;1190;25626;-63
2023/02/01 06:10:00;;;;;;;;;9.00;9.00;;;;;;;;119395;1195;25587;-62
2023/02/01 06:12:28;;;;;;;;;10.00;9.50;;;;;;;;119410;1194;25266;-63
2023/02/01 06:14:58;;;;;;;;;13.67;8.33;;;;;;;;119383;1194;25024;-64
2023/02/01 06:17:26;;;;;;;;;15.00;12.00;;;;;;;;119436;1194;25085;-62
2023/02/01 06:19:54;;;;;;;;;9.00;8.00;;;;;;;;119378;1195;25574;-62
2023/02/01 06:22:23;;;;;;;;;10.50;7.50;;;;;;;;119409;1195;25869;-62
2023/02/01 06:24:51;;;;;;;;;12.67;10.00;;;;;;;;119378;1194;25273;-63
2023/02/01 06:27:19;;;;;;;;;18.00;9.50;;;;;;;;119339;1195;25622;-64
2023/02/01 06:29:48;;;;;;;;;20.00;12.00;;;;;;;;119338;1195;25434;-63
2023/02/01 06:32:17;;;;;;;;;15.50;11.50;;;;;;;;119411;1186;25992;-63
2023/02/01 06:34:45;;;;;;;;;23.67;17.33;;;;;;;;119365;1194;25312;-63
2023/02/01 06:37:13;;;;;;;;;58.50;45.00;;;;;;;;119384;1195;24978;-62
2023/02/01 06:39:42;;;;;;;;;44.50;36.50;;;;;;;;119419;1194;25553;-63
2023/02/01 06:42:10;;;;;;;;;51.00;38.00;;;;;;;;119360;1187;25662;-62
2023/02/01 06:44:38;;;;;;;;;49.00;37.00;;;;;;;;119335;1195;25063;-62
2023/02/01 06:47:07;;;;;;;;;52.00;40.00;;;;;;;;119388;1185;24816;-62
2023/02/01 06:49:36;;;;;;;;;49.00;40.00;;;;;;;;119397;1187;25180;-62
2023/02/01 06:52:04;;;;;;;;;51.00;40.00;;;;;;;;119393;1194;25161;-64
2023/02/01 06:54:33;;;;;;;;;49.50;40.00;;;;;;;;119391;1193;24988;-63
2023/02/01 06:57:02;;;;;;;;;50.00;39.50;;;;;;;;119368;1191;25261;-69
2023/02/01 06:59:30;;;;;;;;;51.00;39.50;;;;;;;;119375;1194;25455;-65
2023/02/01 07:01:58;;;;;;;;;54.67;40.67;;;;;;;;119374;1191;24706;-65
2023/02/01 07:04:27;;;;;;;;;49.00;39.00;;;;;;;;119380;1194;24790;-66
2023/02/01 07:06:55;;;;;;;;;48.00;38.67;;;;;;;;119387;1185;25274;-71
2023/02/01 07:09:23;;;;;;;;;47.00;38.00;;;;;;;;119396;1194;25415;-64
2023/02/01 07:11:52;;;;;;;;;53.50;40.00;;;;;;;;119400;1194;25600;-64
2023/02/01 07:14:20;;;;;;;;;49.67;38.67;;;;;;;;119385;1185;25023;-64
2023/02/01 07:16:48;;;;;;;;;47.67;37.00;;;;;;;;119393;1194;25422;-64
2023/02/01 07:19:17;;;;;;;;;48.00;39.00;;;;;;;;119417;1194;25335;-64
2023/02/01 07:21:45;;;;;;;;;45.50;36.00;;;;;;;;119375;1184;25638;-64
2023/02/01 07:24:14;;;;;;;;;46.00;37.50;;;;;;;;119404;1194;25107;-64
2023/02/01 07:26:42;;;;;;;;;47.00;37.50;;;;;;;;119402;1194;25142;-64
2023/02/01 07:29:11;;;;;;;;;41.00;35.00;;;;;;;;119419;1195;25801;-65
2023/02/01 07:31:39;;;;;;;;;31.00;30.00;;;;;;;;119422;1185;24761;-65
2023/02/01 07:34:07;;;;;;;;;43.00;34.67;;;;;;;;119411;1194;25236;-66
2023/02/01 07:36:36;;;;;;;;;38.00;35.00;;;;;;;;119399;1194;25340;-65
2023/02/01 07:39:04;;;;;;;;;42.50;34.00;;;;;;;;119400;1187;24872;-65
2023/02/01 07:41:33;;;;;;;;;38.50;32.00;;;;;;;;119436;1195;24920;-66
2023/02/01 07:44:01;;;;;;;;;38.00;32.50;;;;;;;;119395;1194;25409;-65
2023/02/01 07:46:29;;;;;;;;;39.50;33.00;;;;;;;;119372;1185;24790;-65
2023/02/01 07:48:57;;;;;;;;;40.00;35.00;;;;;;;;119420;1194;25501;-65
2023/02/01 07:51:26;;;;;;;;;38.00;32.00;;;;;;;;119397;1194;25047;-65
2023/02/01 07:53:54;;;;;;;;;41.50;33.50;;;;;;;;119418;1185;24802;-65
2023/02/01 07:56:25;;;;;;;;;41.50;31.50;;;;;;;;119397;1185;25213;-65
2023/02/01 07:58:59;;;;;;;;;41.00;31.67;;;;;;;;119399;1194;24717;-65
2023/02/01 08:01:28;;;;;;;;;38.00;32.00;;;;;;;;119438;1195;25442;-65
2023/02/01 08:03:59;;;;;;;;;36.00;31.00;;;;;;;;119398;1194;25116;-65
2023/02/01 08:06:30;;;;;;;;;34.00;32.00;;;;;;;;119409;1194;25059;-65
2023/02/01 08:08:59;;;;;;;;;35.50;31.50;;;;;;;;119402;1195;25158;-65
2023/02/01 08:11:27;;;;;;;;;45.00;38.00;;;;;;;;119418;1185;25560;-65
2023/02/01 08:13:55;;;;;;;;;37.00;32.00;;;;;;;;119401;1195;25296;-65
2023/02/01 08:16:24;;;;;;;;;34.00;29.50;;;;;;;;119376;1195;25582;-65
2023/02/01 08:18:53;;;;;;;;;38.00;32.00;;;;;;;;119404;1194;25669;-65
2023/02/01 08:21:25;;;;;;;;;33.00;33.00;;;;;;;;119412;1194;25312;-65
2023/02/01 08:23:53;;;;;;;;;30.33;28.67;;;;;;;;119349;1187;25261;-65
2023/02/01 08:26:24;;;;;;;;;40.00;31.00;;;;;;;;119406;1194;26215;-65
2023/02/01 08:28:58;;;;;;;;;32.00;29.00;;;;;;;;119417;1185;25542;-65
2023/02/01 08:31:27;;;;;;;;;36.00;30.00;;;;;;;;119408;1194;24751;-65
2023/02/01 08:33:58;;;;;;;;;32.33;30.00;;;;;;;;119423;1195;25099;-65
2023/02/01 08:36:29;;;;;;;;;36.50;33.50;;;;;;;;119379;1195;25283;-65
2023/02/01 08:38:58;;;;;;;;;39.00;34.50;;;;;;;;119389;1194;25137;-65
2023/02/01 08:41:28;;;;;;;;;30.50;30.00;;;;;;;;119330;1195;25687;-65
2023/02/01 08:43:57;;;;;;;;;37.50;31.75;;;;;;;;119378;1194;24992;-66
2023/02/01 08:46:25;;;;;;;;;35.00;30.50;;;;;;;;119405;1194;24982;-66
2023/02/01 08:48:54;;;;;;;;;32.00;28.00;;;;;;;;119414;1194;24916;-66
2023/02/01 08:51:23;;;;;;;;;34.33;27.00;;;;;;;;119392;1195;25593;-66
2023/02/01 08:53:51;;;;;;;;;31.00;26.00;;;;;;;;119339;1187;25883;-66
2023/02/01 08:56:20;;;;;;;;;32.00;29.00;;;;;;;;119399;1194;25152;-65
2023/02/01 08:58:48;;;;;;;;;37.00;30.00;;;;;;;;119389;1192;25547;-65
2023/02/01 09:01:16;;;;;;;;;30.00;27.00;;;;;;;;119367;1187;25287;-65
2023/02/01 09:03:45;;;;;;;;;33.00;29.50;;;;;;;;119397;1194;25258;-65
2023/02/01 09:06:15;;;;;;;;;31.00;25.50;;;;;;;;119413;1194;25858;-66
2023/02/01 09:08:43;;;;;;;;;29.00;28.00;;;;;;;;119409;1194;25063;-66
2023/02/01 09:11:14;;;;;;;;;34.00;26.00;;;;;;;;119352;1195;25634;-65
2023/02/01 09:13:43;;;;;;;;;28.00;28.00;;;;;;;;119426;1194;25779;-65
2023/02/01 09:16:11;;;;;;;;;32.00;29.00;;;;;;;;119403;1186;24898;-66
2023/02/01 09:18:40;;;;;;;;;30.00;26.00;;;;;;;;119427;1194;24942;-66
2023/02/01 09:21:23;;;;;;;;;27.67;24.67;;;;;;;;119419;1195;25324;-65
2023/02/01 09:23:52;;;;;;;;;25.00;21.00;;;;;;;;119430;1194;25288;-65
2023/02/01 09:26:21;;;;;;;;;29.00;24.00;;;;;;;;119427;1190;24835;-65
2023/02/01 09:29:00;;;;;;;;;25.00;22.50;;;;;;;;119419;1195;24768;-65
2023/02/01 09:31:29;;;;;;;;;29.50;21.50;;;;;;;;119380;1194;24843;-65
2023/02/01 09:33:58;;;;;;;;;28.33;25.33;;;;;;;;119362;1195;24828;-65
2023/02/01 09:36:26;;;;;;;;;30.50;28.50;;;;;;;;119434;1194;24950;-65
2023/02/01 09:38:58;;;;;;;;;33.00;26.00;;;;;;;;119409;1195;25482;-65
2023/02/01 09:41:39;;;;;;;;;25.00;20.00;;;;;;;;119398;1194;25094;-65
2023/02/01 09:44:26;;;;;;;;;28.50;24.00;;;;;;;;119389;1185;24939;-65
2023/02/01 09:47:02;;;;;;;;;26.50;23.00;;;;;;;;119402;1194;24752;-65
2023/02/01 09:49:42;;;;;;;;;25.75;22.25;;;;;;;;119361;1194;25260;-65
2023/02/01 09:52:13;;;;;;;;;28.00;26.00;;;;;;;;119421;1185;24814;-65
2023/02/01 09:54:53;;;;;;;;;25.00;22.00;;;;;;;;119405;1194;25942;-65
2023/02/01 09:57:28;;;;;;;;;29.33;26.67;;;;;;;;119406;1195;25362;-65
2023/02/01 10:00:05;;;;;;;;;30.00;26.00;;;;;;;;119410;1191;25506;-65
2023/02/01 10:02:37;;;;;;;;;23.00;19.00;;;;;;;;119393;1195;25036;-66
2023/02/01 10:05:11;;;;;;;;;29.00;26.00;;;;;;;;119433;1185;24978;-65
2023/02/01 10:07:51;;;;;;;;;31.00;28.00;;;;;;;;119380;1195;25029;-65
2023/02/01 10:10:47;;;;;;;;;27.50;23.00;;;;;;;;119400;1195;26374;-65
2023/02/01 10:13:43;;;;;;;;;23.00;23.00;;;;;;;;119390;1187;25285;-65
2023/02/01 10:16:31;;;;;;;;;25.00;23.00;;;;;;;;119387;1185;24922;-65
2023/02/01 10:19:14;;;;;;;;;27.00;23.33;;;;;;;;119389;1194;26076;-65
2023/02/01 10:21:53;;;;;;;;;21.00;20.33;;;;;;;;119426;1185;25229;-65
2023/02/01 10:24:38;;;;;;;;;25.25;20.25;;;;;;;;119385;1186;25209;-66
2023/02/01 10:27:13;;;;;;;;;25.00;22.00;;;;;;;;119409;1194;25473;-66
2023/02/01 10:29:45;;;;;;;;;26.50;23.50;;;;;;;;119409;1194;24953;-66
2023/02/01 10:32:16;;;;;;;;;23.00;21.00;;;;;;;;119372;1186;25292;-66
2023/02/01 10:34:49;;;;;;;;;25.00;22.00;;;;;;;;119442;1194;25363;-66
2023/02/01 10:37:25;;;;;;;;;31.00;25.75;;;;;;;;119398;1195;25068;-66
2023/02/01 10:39:59;;;;;;;;;24.00;19.67;;;;;;;;119426;1194;25822;-66
2023/02/01 10:42:28;;;;;;;;;18.50;18.00;;;;;;;;119411;1195;24733;-66
2023/02/01 10:44:59;;;;;;;;;20.50;18.50;;;;;;;;119418;1195;24853;-66
2023/02/01 10:47:28;;;;;;;;;21.33;20.33;;;;;;;;119432;1195;25318;-66
2023/02/01 10:50:15;;;;;;;;;28.25;23.00;;;;;;;;119422;1194;25546;-66
2023/02/01 10:53:07;;;;;;;;;22.50;20.50;;;;;;;;119407;1187;25042;-66
2023/02/01 10:55:41;;;;;;;;;22.50;20.00;;;;;;;;119237;1195;24932;-66
2023/02/01 10:58:21;;;;;;;;;26.00;23.00;;;;;;;;119363;1192;24795;-66
2023/02/01 11:00:54;;;;;;;;;16.00;13.50;;;;;;;;119408;1195;25252;-66
2023/02/01 11:03:52;;;;;;;;;22.00;20.67;;;;;;;;119431;1194;24910;-64
2023/02/01 11:06:30;;;;;;;;;24.00;20.00;;;;;;;;119355;1188;25269;-64
2023/02/01 11:09:23;;;;;;;;;21.00;18.00;;;;;;;;119413;1185;25077;-64
2023/02/01 11:11:53;;;;;;;;;26.00;23.00;;;;;;;;119405;1185;25028;-64
2023/02/01 11:14:24;;;;;;;;;27.00;22.00;;;;;;;;119384;1195;24691;-64
2023/02/01 11:16:54;;;;;;;;;17.67;17.67;;;;;;;;119369;1194;25154;-65
2023/02/01 11:19:22;;;;;;;;;19.50;19.50;;;;;;;;119404;1194;24757;-64
2023/02/01 11:21:51;;;;;;;;;20.00;19.00;;;;;;;;119412;1194;25144;-65
2023/02/01 11:24:20;;;;;;;;;22.00;21.50;;;;;;;;119417;1194;25710;-65
2023/02/01 11:26:48;;;;;;;;;24.00;22.00;;;;;;;;119406;1195;25490;-64
2023/02/01 11:29:21;;;;;;;;;24.00;21.00;;;;;;;;119423;1185;25264;-65
2023/02/01 11:31:50;;;;;;;;;21.00;17.00;;;;;;;;119417;1195;25280;-64
2023/02/01 11:34:23;;;;;;;;;20.50;19.00;;;;;;;;119395;1187;24918;-64
2023/02/01 11:36:52;;;;;;;;;20.00;16.00;;;;;;;;119381;1194;25034;-66
2023/02/01 11:39:30;;;;;;;;;16.00;16.00;;;;;;;;119420;1195;25606;-65
2023/02/01 11:42:14;;;;;;;;;23.00;21.00;;;;;;;;119413;1195;25264;-65
2023/02/01 11:49:57;;;;;;;;;21.75;18.50;;;;;;;;116269;1195;23475;-64
2023/02/01 11:52:44;;;;;;;;;18.33;15.00;;;;;;;;117169;1183;24896;-66
2023/02/01 11:55:43;;;;;;;;;23.67;19.67;;;;;;;;117415;1184;25729;-70
2023/02/01 11:58:22;;;;;;;;;20.50;18.50;;;;;;;;117412;1184;25136;-64
2023/02/01 12:00:59;;;;;;;;;17.50;15.00;;;;;;;;117423;1183;25440;-64
2023/02/01 12:03:33;;;;;;;;;19.00;17.33;;;;;;;;117411;1182;24924;-63
2023/02/01 12:06:14;;;;;;;;;21.00;19.67;;;;;;;;117419;1183;25419;-64
2023/02/01 12:08:55;;;;;;;;;17.67;17.67;;;;;;;;117403;1183;24915;-64
2023/02/01 12:11:38;;;;;;;;;18.50;16.50;;;;;;;;117449;1183;26378;-64
2023/02/01 12:14:22;;;;;;;;;19.67;19.00;;;;;;;;117396;1194;24671;-64
2023/02/01 12:17:16;;;;;;;;;21.50;18.75;;;;;;;;117416;1190;25097;-64
2023/02/01 12:20:04;;;;;;;;;16.75;16.75;;;;;;;;117412;1183;25276;-65
2023/02/01 12:22:36;;;;;;;;;25.00;19.50;;;;;;;;117421;1191;24871;-64
2023/02/01 12:25:17;;;;;;;;;21.50;19.00;;;;;;;;117473;1196;25089;-64
2023/02/01 12:28:04;;;;;;;;;19.00;19.00;;;;;;;;117067;1189;25649;-65
2023/02/01 12:30:38;;;;;;;;;20.33;18.33;;;;;;;;117475;1182;25598;-65
2023/02/01 12:33:29;;;;;;;;;19.00;18.75;;;;;;;;117414;1196;24976;-65
2023/02/01 12:36:26;;;;;;;;;24.00;18.00;;;;;;;;117420;1183;25662;-65
2023/02/01 12:39:24;;;;;;;;;17.67;15.33;;;;;;;;117131;1184;25455;-64
2023/02/01 12:42:03;;;;;;;;;22.67;19.00;;;;;;;;117418;1183;25461;-64
2023/02/01 12:44:32;;;;;;;;;18.50;17.00;;;;;;;;117176;1184;24707;-64
2023/02/01 12:47:11;;;;;;;;;20.00;16.00;;;;;;;;117441;1183;25399;-64
2023/02/01 12:49:57;;;;;;;;;22.00;19.33;;;;;;;;117416;1195;25699;-64
2023/02/01 12:52:48;;;;;;;;;18.00;14.00;;;;;;;;117405;1194;25219;-65
2023/02/01 12:55:25;;;;;;;;;14.67;13.00;;;;;;;;117112;1184;25009;-65
2023/02/01 12:58:14;;;;;;;;;21.25;17.75;;;;;;;;117430;1183;24896;-64
2023/02/01 13:00:51;;;;;;;;;21.25;16.75;;;;;;;;117413;1183;25433;-64
2023/02/01 13:03:37;;;;;;;;;16.50;14.50;;;;;;;;117417;1196;25539;-65
2023/02/01 13:06:15;;;;;;;;;22.50;17.50;;;;;;;;117442;1190;25433;-63
2023/02/01 13:08:47;;;;;;;;;22.67;18.00;;;;;;;;117430;1184;24902;-64
2023/02/01 13:11:38;;;;;;;;;19.33;17.00;;;;;;;;117424;1183;25431;-64
2023/02/01 13:14:33;;;;;;;;;18.00;17.00;;;;;;;;117453;1184;24806;-65
2023/02/01 13:17:11;;;;;;;;;22.67;19.00;;;;;;;;117142;1196;25507;-65
2023/02/01 13:19:51;;;;;;;;;21.00;16.33;;;;;;;;117410;1190;25148;-64
2023/02/01 13:22:23;;;;;;;;;20.67;18.33;;;;;;;;117406;1183;24800;-65
2023/02/01 13:24:57;;;;;;;;;21.00;16.33;;;;;;;;117430;1182;25664;-64
2023/02/01 13:27:32;;;;;;;;;22.00;19.00;;;;;;;;117408;1183;25063;-64
2023/02/01 13:30:36;;;;;;;;;20.67;19.67;;;;;;;;117420;1184;24770;-65
2023/02/01 13:33:25;;;;;;;;;16.00;15.00;;;;;;;;117361;1183;25676;-66
2023/02/01 13:36:43;;;;;;;;;21.25;17.75;;;;;;;;117749;1180;24927;-64
2023/02/01 13:39:20;;;;;;;;;22.50;20.00;;;;;;;;117483;1183;25359;-65
2023/02/01 13:42:16;;;;;;;;;18.00;13.00;;;;;;;;117780;1192;25505;-65
2023/02/01 13:44:57;;;;;;;;;24.00;17.00;;;;;;;;117474;1193;25108;-64
2023/02/01 13:48:00;;;;;;;;;20.33;18.67;;;;;;;;117836;1184;25134;-64
2023/02/01 13:50:35;;;;;;;;;17.50;16.50;;;;;;;;117177;1187;25366;-64
2023/02/01 13:53:11;;;;;;;;;23.67;19.67;;;;;;;;117389;1184;25689;-64
2023/02/01 13:56:06;;;;;;;;;13.00;11.00;;;;;;;;117409;1180;25533;-64
2023/02/01 13:58:42;;;;;;;;;17.00;15.67;;;;;;;;117400;1180;25594;-65
2023/02/01 14:01:33;;;;;;;;;21.67;18.33;;;;;;;;117394;1183;24770;-64
2023/02/01 14:04:05;;;;;;;;;19.00;18.00;;;;;;;;117447;1194;25649;-64
2023/02/01 14:06:43;;;;;;;;;18.50;16.00;;;;;;;;117407;1194;25398;-67
2023/02/01 14:09:31;;;;;;;;;16.67;15.67;;;;;;;;117460;1183;25397;-65
2023/02/01 14:12:38;;;;;;;;;16.00;11.67;;;;;;;;117473;1181;25195;-65
2023/02/01 14:15:27;;;;;;;;;11.00;11.00;;;;;;;;117480;1184;25269;-71
2023/02/01 14:17:56;;;;;;;;;18.50;16.50;;;;;;;;117422;1182;25615;-66
2023/02/01 14:20:43;;;;;;;;;22.33;20.00;;;;;;;;117405;1190;25538;-68
2023/02/01 14:23:15;;;;;;;;;17.00;16.67;;;;;;;;117420;1182;24790;-68
2023/02/01 14:25:44;;;;;;;;;16.00;16.00;;;;;;;;117398;1194;24800;-65
2023/02/01 14:28:43;;;;;;;;;22.33;17.67;;;;;;;;117420;1194;25508;-67
2023/02/01 14:31:39;;;;;;;;;17.00;17.00;;;;;;;;117388;1181;25043;-64
2023/02/01 14:34:19;;;;;;;;;21.00;16.33;;;;;;;;117073;1187;25183;-65
2023/02/01 14:36:52;;;;;;;;;18.25;18.00;;;;;;;;117413;1190;25479;-68
2023/02/01 14:39:29;;;;;;;;;21.50;18.50;;;;;;;;117373;1194;25592;-72
2023/02/01 14:42:02;;;;;;;;;22.75;16.00;;;;;;;;117389;1181;24797;-75
2023/02/01 14:44:33;;;;;;;;;22.33;18.67;;;;;;;;117354;1180;25473;-76
2023/02/01 14:47:24;;;;;;;;;19.33;18.00;;;;;;;;117377;1181;25111;-75
2023/02/01 14:50:19;;;;;;;;;21.75;17.50;;;;;;;;117393;1180;25595;-67
2023/02/01 14:52:50;;;;;;;;;21.67;17.67;;;;;;;;117460;1180;25477;-73
2023/02/01 14:55:26;;;;;;;;;19.00;19.00;;;;;;;;117429;1183;25076;-67
2023/02/01 14:57:58;;;;;;;;;17.00;14.67;;;;;;;;117775;1182;25152;-67
2023/02/01 15:00:29;;;;;;;;;21.50;16.75;;;;;;;;117412;1190;25100;-66
2023/02/01 15:03:31;;;;;;;;;18.75;15.25;;;;;;;;117606;1192;25788;-70
2023/02/01 15:06:00;;;;;;;;;18.75;14.00;;;;;;;;117463;1183;24885;-73
2023/02/01 15:08:33;;;;;;;;;21.50;17.50;;;;;;;;117460;1180;25228;-75
2023/02/01 15:11:06;;;;;;;;;16.50;16.00;;;;;;;;117443;1183;25239;-68
2023/02/01 15:13:35;;;;;;;;;23.67;16.67;;;;;;;;117450;1180;24800;-69
2023/02/01 15:16:10;;;;;;;;;21.00;20.00;;;;;;;;117832;1183;25031;-72